createdAt,value
2023-01-03T00:01:11.737Z,9.55
2023-01-03T00:04:45.835Z,9.51
2023-01-03T00:08:16.560Z,9.48
2023-01-03T00:12:02.059Z,9.44
2023-01-03T00:15:29.984Z,9.40
2023-01-03T00:19:00.211Z,9.38
2023-01-03T00:22:30.336Z,9.37
2023-01-03T00:25:59.667Z,9.36
2023-01-03T00:29:26.868Z,9.34
2023-01-03T00:32:54.296Z,9.31
2023-01-03T00:36:21.769Z,9.27
2023-01-03T00:39:48.989Z,9.20
2023-01-03T00:43:31.232Z,9.14
2023-01-03T00:46:58.319Z,9.06
2023-01-03T00:50:25.726Z,8.98
2023-01-03T00:53:57.843Z,8.91
2023-01-03T00:57:25.402Z,8.83
2023-01-03T01:00:52.547Z,8.76
2023-01-03T01:04:22.074Z,8.70
2023-01-03T01:07:48.953Z,8.64
2023-01-03T01:11:17.559Z,8.59
2023-01-03T01:14:44.385Z,8.52
2023-01-03T01:18:11.801Z,8.45
2023-01-03T01:21:41.287Z,8.39
2023-01-03T01:25:09.832Z,8.33
2023-01-03T01:28:37.321Z,8.30
2023-01-03T01:32:04.475Z,8.29
2023-01-03T01:35:34.498Z,8.29
2023-01-03T01:39:00.644Z,8.29
2023-01-03T01:42:45.413Z,8.26
2023-01-03T01:46:19.066Z,8.22
2023-01-03T01:49:46.894Z,8.22
2023-01-03T01:53:17.085Z,8.25
2023-01-03T01:56:47.677Z,8.27
2023-01-03T02:00:16.364Z,8.31
2023-01-03T02:03:46.462Z,8.36
2023-01-03T02:07:13.864Z,8.39
2023-01-03T02:10:57.795Z,8.43
2023-01-03T02:14:41.038Z,8.45
2023-01-03T02:18:20.759Z,8.45
2023-01-03T02:22:14.228Z,8.45
2023-01-03T02:26:18.434Z,8.44
2023-01-03T02:30:18.812Z,8.43
2023-01-03T02:33:55.096Z,8.43
2023-01-03T02:37:31.494Z,8.42
2023-01-03T02:41:05.639Z,8.43
2023-01-03T02:44:37.313Z,8.43
2023-01-03T02:48:10.723Z,8.43
2023-01-03T02:51:42.354Z,8.41
2023-01-03T02:55:16.055Z,8.39
2023-01-03T02:58:47.740Z,8.36
2023-01-03T03:02:16.584Z,8.31
2023-01-03T03:05:51.052Z,8.25
2023-01-03T03:09:18.117Z,8.18
2023-01-03T03:13:06.991Z,8.12
2023-01-03T03:16:51.195Z,8.09
2023-01-03T03:20:38.033Z,8.08
2023-01-03T03:24:32.669Z,8.08
2023-01-03T03:28:21.571Z,8.08
2023-01-03T03:31:51.371Z,8.10
2023-01-03T03:35:23.833Z,8.13
2023-01-03T03:38:51.360Z,8.15
2023-01-03T03:42:40.691Z,8.16
2023-01-03T03:46:14.805Z,8.15
2023-01-03T03:49:46.859Z,8.12
2023-01-03T03:53:15.831Z,8.07
2023-01-03T03:56:47.700Z,7.99
2023-01-03T04:00:23.981Z,7.89
2023-01-03T04:03:54.654Z,7.80
2023-01-03T04:07:21.524Z,7.71
2023-01-03T04:10:48.687Z,7.62
2023-01-03T04:14:15.713Z,7.52
2023-01-03T04:17:42.540Z,7.43
2023-01-03T04:21:12.092Z,7.34
2023-01-03T04:24:41.095Z,7.26
2023-01-03T04:28:08.431Z,7.17
2023-01-03T04:31:35.415Z,7.08
2023-01-03T04:35:02.338Z,6.98
2023-01-03T04:38:30.314Z,6.88
2023-01-03T04:41:57.193Z,6.80
2023-01-03T04:45:24.570Z,6.71
2023-01-03T04:48:51.623Z,6.62
2023-01-03T04:52:19.232Z,6.53
2023-01-03T04:55:50.479Z,6.45
2023-01-03T04:59:17.752Z,6.36
2023-01-03T05:02:44.729Z,6.28
2023-01-03T05:06:13.487Z,6.21
2023-01-03T05:09:40.449Z,6.12
2023-01-03T05:13:08.510Z,6.06
2023-01-03T05:16:35.706Z,6.01
2023-01-03T05:20:20.100Z,5.95
2023-01-03T05:24:05.078Z,5.91
2023-01-03T05:27:32.340Z,5.86
2023-01-03T05:31:01.239Z,5.81
2023-01-03T05:34:31.965Z,5.78
2023-01-03T05:37:58.836Z,5.74
2023-01-03T05:41:43.573Z,5.71
2023-01-03T05:45:12.139Z,5.70
2023-01-03T05:48:39.008Z,5.71
2023-01-03T05:52:06.360Z,5.69
2023-01-03T05:55:33.308Z,5.66
2023-01-03T05:59:00.652Z,5.62
2023-01-03T06:02:31.113Z,5.57
2023-01-03T06:06:02.941Z,5.52
2023-01-03T06:09:30.018Z,5.47
2023-01-03T06:12:57.034Z,5.40
2023-01-03T06:16:42.428Z,5.32
2023-01-03T06:20:11.403Z,5.22
2023-01-03T06:23:38.310Z,5.13
2023-01-03T06:27:05.581Z,5.04
2023-01-03T06:30:32.576Z,4.95
2023-01-03T06:33:59.660Z,4.87
2023-01-03T06:37:28.037Z,4.78
2023-01-03T06:40:55.036Z,4.71
2023-01-03T06:44:21.929Z,4.62
2023-01-03T06:48:06.580Z,4.54
2023-01-03T06:51:51.930Z,4.47
2023-01-03T06:55:20.472Z,4.39
2023-01-03T06:58:47.454Z,4.30
2023-01-03T07:02:14.878Z,4.22
2023-01-03T07:05:42.128Z,4.16
2023-01-03T07:09:10.348Z,4.12
2023-01-03T07:12:55.146Z,4.08
2023-01-03T07:16:22.952Z,4.02
2023-01-03T07:19:49.987Z,3.96
2023-01-03T07:23:17.025Z,3.91
2023-01-03T07:26:44.358Z,3.90
2023-01-03T07:30:17.900Z,3.89
2023-01-03T07:33:45.385Z,3.90
2023-01-03T07:37:12.262Z,3.91
2023-01-03T07:40:39.500Z,3.94
2023-01-03T07:44:07.079Z,3.98
2023-01-03T07:47:34.236Z,4.05
2023-01-03T07:51:02.507Z,4.12
2023-01-03T07:54:29.630Z,4.18
2023-01-03T07:57:56.870Z,4.24
2023-01-03T08:01:25.486Z,4.31
2023-01-03T08:04:52.842Z,4.38
2023-01-03T08:08:19.848Z,4.45
2023-01-03T08:12:04.810Z,4.52
2023-01-03T08:15:31.869Z,4.59
2023-01-03T08:19:01.892Z,4.64
2023-01-03T08:22:33.920Z,4.70
2023-01-03T08:26:07.558Z,4.75
2023-01-03T08:29:38.330Z,4.80
2023-01-03T08:33:09.721Z,4.86
2023-01-03T08:36:40.359Z,4.91
2023-01-03T08:40:12.004Z,4.99
2023-01-03T08:43:42.588Z,5.08
2023-01-03T08:47:11.276Z,5.18
2023-01-03T08:50:38.698Z,5.28
2023-01-03T08:54:05.958Z,5.39
2023-01-03T08:57:33.152Z,5.50
2023-01-03T09:01:04.222Z,5.60
2023-01-03T09:04:31.521Z,5.71
2023-01-03T09:07:59.003Z,5.80
2023-01-03T09:11:26.186Z,5.90
2023-01-03T09:14:53.293Z,5.99
2023-01-03T09:18:20.202Z,6.07
2023-01-03T09:21:47.130Z,6.15
2023-01-03T09:25:14.027Z,6.23
2023-01-03T09:28:43.451Z,6.32
2023-01-03T09:32:10.718Z,6.40
2023-01-03T09:35:38.245Z,6.46
2023-01-03T09:39:05.294Z,6.52
2023-01-03T09:42:53.444Z,6.57
2023-01-03T09:46:23.114Z,6.63
2023-01-03T09:50:18.759Z,6.69
2023-01-03T09:54:00.131Z,6.75
2023-01-03T09:57:47.726Z,6.80
2023-01-03T10:01:46.150Z,6.84
2023-01-03T10:05:38.005Z,6.92
2023-01-03T10:09:17.748Z,7.00
2023-01-03T10:12:46.385Z,7.04
2023-01-03T10:16:21.355Z,7.12
2023-01-03T10:20:13.349Z,7.31
2023-01-03T10:23:40.444Z,7.51
2023-01-03T10:27:19.258Z,7.59
2023-01-03T10:31:13.214Z,7.62
2023-01-03T10:34:41.515Z,7.60
2023-01-03T10:38:18.172Z,7.58
2023-01-03T10:41:48.890Z,7.58
2023-01-03T10:45:21.297Z,7.59
2023-01-03T10:49:25.922Z,7.56
2023-01-03T10:52:41.868Z,7.58
2023-01-03T10:56:09.898Z,7.62
2023-01-03T10:59:37.355Z,7.63
2023-01-03T11:03:17.651Z,7.64
2023-01-03T11:06:59.879Z,7.62
2023-01-03T11:10:32.578Z,7.52
2023-01-03T11:14:19.273Z,7.39
2023-01-03T11:18:00.293Z,7.24
2023-01-03T11:21:36.805Z,7.14
2023-01-03T11:25:12.869Z,7.07
2023-01-03T11:29:09.082Z,6.98
2023-01-03T11:32:47.772Z,6.86
2023-01-03T11:36:35.368Z,6.78
2023-01-03T11:40:15.732Z,6.71
2023-01-03T11:43:54.492Z,6.69
2023-01-03T11:47:32.194Z,6.71
2023-01-03T11:51:10.338Z,6.72
2023-01-03T11:55:18.282Z,6.72
2023-01-03T11:58:58.439Z,6.66
2023-01-03T12:02:57.197Z,6.61
2023-01-03T12:06:35.360Z,6.54
2023-01-03T12:10:15.196Z,6.46
2023-01-03T12:13:49.378Z,6.43
2023-01-03T12:17:24.349Z,6.41
2023-01-03T12:20:57.166Z,6.36
2023-01-03T12:24:32.963Z,6.30
2023-01-03T12:28:12.538Z,6.23
2023-01-03T12:31:45.782Z,6.21
2023-01-03T12:35:34.053Z,6.22
2023-01-03T12:39:14.516Z,6.29
2023-01-03T12:42:47.347Z,6.36
2023-01-03T12:46:18.531Z,6.43
2023-01-03T12:49:52.811Z,6.50
2023-01-03T12:53:34.073Z,6.55
2023-01-03T12:57:14.506Z,6.58
2023-01-03T13:00:55.891Z,6.62
2023-01-03T13:04:26.563Z,6.65
2023-01-03T13:08:03.756Z,6.66
2023-01-03T13:11:38.195Z,6.64
2023-01-03T13:15:20.311Z,6.64
2023-01-03T13:18:47.421Z,6.63
2023-01-03T13:22:47.734Z,6.62
2023-01-03T13:26:23.660Z,6.58
2023-01-03T13:29:58.583Z,6.55
2023-01-03T13:33:25.471Z,6.52
2023-01-03T13:37:17.817Z,6.49
2023-01-03T13:41:16.759Z,6.43
2023-01-03T13:44:35.301Z,6.36
2023-01-03T13:48:17.182Z,6.29
2023-01-03T13:51:54.994Z,6.21
2023-01-03T13:59:27.715Z,6.10
2023-01-03T14:03:35.281Z,6.00
2023-01-03T14:07:25.560Z,5.90
2023-01-03T14:11:09.072Z,5.81
2023-01-03T14:14:42.397Z,5.71
2023-01-03T14:18:22.943Z,5.59
2023-01-03T14:21:54.183Z,5.45
2023-01-03T14:25:39.019Z,5.32
2023-01-03T14:29:15.082Z,5.18
2023-01-03T14:32:42.526Z,5.04
2023-01-03T14:36:14.762Z,4.89
2023-01-03T14:39:41.844Z,4.73
2023-01-03T14:43:20.950Z,4.58
2023-01-03T14:46:55.735Z,4.42
2023-01-03T14:50:27.704Z,4.25
2023-01-03T14:53:55.203Z,4.09
2023-01-03T14:57:26.465Z,3.94
2023-01-03T15:01:00.985Z,3.79
2023-01-03T15:04:28.209Z,3.65
2023-01-03T15:07:55.940Z,3.54
2023-01-03T15:11:33.522Z,3.43
2023-01-03T15:15:07.497Z,3.33
2023-01-03T15:18:37.995Z,3.25
2023-01-03T15:22:16.446Z,3.17
2023-01-03T15:25:44.505Z,3.09
2023-01-03T15:29:15.949Z,3.03
2023-01-03T15:32:54.242Z,2.95
2023-01-03T15:36:21.688Z,2.86
2023-01-03T15:39:51.691Z,2.78
2023-01-03T15:43:26.656Z,2.72
2023-01-03T15:46:57.313Z,2.63
2023-01-03T15:50:28.368Z,2.55
2023-01-03T15:53:58.276Z,2.48
2023-01-03T15:57:30.774Z,2.40
2023-01-03T16:00:58.478Z,2.32
2023-01-03T16:04:38.047Z,2.25
2023-01-03T16:08:11.201Z,2.17
2023-01-03T16:11:38.633Z,2.10
2023-01-03T16:15:08.641Z,2.05
2023-01-03T16:18:40.333Z,2.00
2023-01-03T16:22:33.804Z,1.93
2023-01-03T16:25:55.685Z,1.88
2023-01-03T16:29:22.712Z,1.85
2023-01-03T16:32:51.644Z,1.81
2023-01-03T16:36:29.475Z,1.76
2023-01-03T16:39:59.416Z,1.72
2023-01-03T16:43:29.723Z,1.66
2023-01-03T16:46:56.812Z,1.62
2023-01-03T16:50:24.215Z,1.60
2023-01-03T16:53:52.218Z,1.57
2023-01-03T16:57:22.004Z,1.53
2023-01-03T17:00:51.064Z,1.49
2023-01-03T17:04:18.352Z,1.46
2023-01-03T17:07:47.957Z,1.41
2023-01-03T17:11:13.347Z,1.37
2023-01-03T17:14:40.676Z,1.34
2023-01-03T17:18:12.360Z,1.30
2023-01-03T17:21:39.250Z,1.26
2023-01-03T17:25:07.555Z,1.23
2023-01-03T17:28:35.151Z,1.18
2023-01-03T17:32:03.159Z,1.15
2023-01-03T17:35:30.539Z,1.11
2023-01-03T17:39:01.995Z,1.04
2023-01-03T17:42:30.150Z,0.98
2023-01-03T17:46:23.429Z,0.94
2023-01-03T17:49:51.435Z,0.92
2023-01-03T17:53:22.506Z,0.92
2023-01-03T17:56:49.528Z,0.96
2023-01-03T18:00:23.330Z,0.97
2023-01-03T18:03:50.494Z,0.97
2023-01-03T18:07:23.793Z,1.02
2023-01-03T18:10:53.440Z,1.09
2023-01-03T18:14:19.148Z,1.18
2023-01-03T18:17:47.398Z,1.28
2023-01-03T18:21:23.173Z,1.38
2023-01-03T18:25:03.228Z,1.49
2023-01-03T18:28:31.506Z,1.58
2023-01-03T18:31:58.723Z,1.66
2023-01-03T18:35:30.936Z,1.73
2023-01-03T18:39:08.722Z,1.79
2023-01-03T18:42:56.169Z,1.86
2023-01-03T18:46:28.147Z,1.95
2023-01-03T18:49:55.276Z,2.02
2023-01-03T18:53:26.728Z,2.10
2023-01-03T18:56:53.567Z,2.16
2023-01-03T19:00:23.990Z,2.21
2023-01-03T19:03:51.098Z,2.24
2023-01-03T19:07:27.315Z,2.28
2023-01-03T19:10:54.493Z,2.33
2023-01-03T19:14:21.876Z,2.38
2023-01-03T19:17:49.016Z,2.42
2023-01-03T19:21:17.336Z,2.46
2023-01-03T19:24:44.383Z,2.46
2023-01-03T19:28:13.394Z,2.43
2023-01-03T19:31:46.996Z,2.39
2023-01-03T19:35:18.747Z,2.34
2023-01-03T19:38:45.664Z,2.33
2023-01-03T19:42:34.247Z,2.34
2023-01-03T19:46:01.207Z,2.37
2023-01-03T19:49:29.152Z,2.41
2023-01-03T19:52:57.229Z,2.44
2023-01-03T19:56:25.488Z,2.44
2023-01-03T19:59:56.089Z,2.44
2023-01-03T20:03:29.860Z,2.46
2023-01-03T20:06:57.473Z,2.50
2023-01-03T20:10:27.018Z,2.52
2023-01-03T20:13:53.129Z,2.51
2023-01-03T20:17:23.547Z,2.47
2023-01-03T20:20:51.533Z,2.40
2023-01-03T20:24:25.838Z,2.33
2023-01-03T20:27:53.715Z,2.30
2023-01-03T20:31:21.091Z,2.27
2023-01-03T20:34:48.396Z,2.24
2023-01-03T20:38:16.951Z,2.20
2023-01-03T20:41:46.125Z,2.15
2023-01-03T20:45:18.305Z,2.10
2023-01-03T20:48:45.812Z,2.01
2023-01-03T20:52:17.677Z,1.92
2023-01-03T20:55:49.440Z,1.84
2023-01-03T20:59:20.347Z,1.81
2023-01-03T21:02:47.675Z,1.79
2023-01-03T21:06:20.709Z,1.78
2023-01-03T21:09:47.891Z,1.75
2023-01-03T21:13:14.838Z,1.74
2023-01-03T21:16:45.195Z,1.76
2023-01-03T21:20:18.583Z,1.77
2023-01-03T21:23:47.967Z,1.80
2023-01-03T21:27:15.143Z,1.83
2023-01-03T21:30:43.248Z,1.86
2023-01-03T21:34:17.742Z,1.88
2023-01-03T21:37:45.411Z,1.87
2023-01-03T21:41:19.482Z,1.85
2023-01-03T21:44:46.378Z,1.86
2023-01-03T21:48:16.520Z,1.88
2023-01-03T21:51:44.429Z,1.92
2023-01-03T21:55:13.040Z,1.96
2023-01-03T21:58:40.680Z,1.97
2023-01-03T22:02:28.580Z,1.97
2023-01-03T22:06:07.507Z,1.95
2023-01-03T22:09:52.493Z,1.90
2023-01-03T22:13:22.299Z,1.84
2023-01-03T22:16:49.237Z,1.77
2023-01-03T22:20:18.657Z,1.69
2023-01-03T22:23:45.558Z,1.63
2023-01-03T22:27:12.574Z,1.55
2023-01-03T22:30:42.099Z,1.47
2023-01-03T22:34:09.343Z,1.40
2023-01-03T22:37:37.263Z,1.34
2023-01-03T22:41:09.220Z,1.28
2023-01-03T22:44:36.738Z,1.20
2023-01-03T22:48:03.709Z,1.10
2023-01-03T22:51:30.967Z,1.02
2023-01-03T22:54:57.918Z,0.92
2023-01-03T22:58:24.810Z,0.84
2023-01-03T23:01:52.330Z,0.76
2023-01-03T23:05:19.528Z,0.68
2023-01-03T23:08:51.225Z,0.61
2023-01-03T23:12:36.260Z,0.55
2023-01-03T23:16:05.725Z,0.49
2023-01-03T23:19:31.048Z,0.42
2023-01-03T23:23:02.800Z,0.34
2023-01-03T23:26:29.819Z,0.25
2023-01-03T23:29:56.897Z,0.20
2023-01-03T23:33:24.382Z,0.13
2023-01-03T23:36:51.398Z,0.08
2023-01-03T23:40:18.693Z,0.04
2023-01-03T23:43:45.853Z,0.00
2023-01-03T23:47:13.055Z,-0.04
2023-01-03T23:50:40.121Z,-0.05
2023-01-03T23:54:07.193Z,-0.06
2023-01-03T23:57:34.437Z,-0.05
